Time;durP1;ratioP1;P1;durP2;ratioP2;P2;SDS_P1;SDS_P2;PMS_P1;PMS_P2;Temp;Humidity;BMP_temperature;BMP_pressure;BME280_temperature;BME280_humidity;BME280_pressure;Samples;Min_cycle;Max_cycle;Signal;HPM_P1;HPM_P2
2022/03/27 00:02:40;;;;;;;14.73;4.88;;;17.50;31.50;;;;;;6297073;28;20060;-70
2022/03/27 00:05:41;;;;;;;8.70;4.15;;;17.50;31.60;;;;;;6294027;28;20365;-70
2022/03/27 00:08:42;;;;;;;7.03;3.40;;;17.40;31.60;;;;;;6295293;28;20036;-70
2022/03/27 00:11:43;;;;;;;10.77;4.55;;;17.40;31.70;;;;;;6295343;28;20075;-69
2022/03/27 00:14:44;;;;;;;11.23;4.60;;;17.30;31.70;;;;;;6295389;28;20044;-70
2022/03/27 00:17:45;;;;;;;14.18;4.80;;;17.30;31.80;;;;;;6296157;28;20029;-70
2022/03/27 00:20:46;;;;;;;11.52;4.47;;;17.20;31.80;;;;;;6292547;28;20090;-70
2022/03/27 00:23:47;;;;;;;12.50;4.15;;;17.20;31.90;;;;;;6296149;28;20127;-69
2022/03/27 00:26:48;;;;;;;11.48;4.53;;;17.20;32.10;;;;;;6293705;28;20458;-70
2022/03/27 00:29:50;;;;;;;13.02;4.18;;;17.10;32.10;;;;;;6271408;28;20044;-70
2022/03/27 00:32:51;;;;;;;9.93;4.60;;;17.00;32.40;;;;;;6294069;28;20036;-69
2022/03/27 00:35:52;;;;;;;7.63;4.13;;;17.00;32.50;;;;;;6296365;28;20056;-69
2022/03/27 00:38:52;;;;;;;9.05;3.88;;;16.90;32.50;;;;;;6285381;28;20060;-69
2022/03/27 00:41:55;;;;;;;12.90;4.25;;;16.90;32.70;;;;;;6310015;28;20037;-69
2022/03/27 00:44:56;;;;;;;9.32;4.50;;;16.80;33.40;;;;;;6295564;28;20025;-69
2022/03/27 00:47:57;;;;;;;12.05;4.50;;;16.80;33.10;;;;;;6291961;28;20476;-70
2022/03/27 00:50:58;;;;;;;11.40;4.18;;;16.70;33.40;;;;;;6293896;28;20033;-69
2022/03/27 00:53:59;;;;;;;13.88;4.30;;;16.60;33.70;;;;;;6277155;28;20032;-70
2022/03/27 00:57:00;;;;;;;8.93;4.18;;;16.50;33.80;;;;;;6295102;28;20042;-69
2022/03/27 01:00:02;;;;;;;6.65;3.60;;;16.40;33.90;;;;;;6292715;28;20457;-69
2022/03/27 01:03:04;;;;;;;9.82;4.05;;;16.40;34.10;;;;;;6294613;28;20028;-69
2022/03/27 01:06:18;;;;;;;9.00;3.80;;;16.30;34.00;;;;;;6293262;28;20427;-70
2022/03/27 01:09:37;;;;;;;13.52;4.15;;;16.30;34.10;;;;;;6293486;28;20036;-69
2022/03/27 01:12:42;;;;;;;8.38;4.32;;;16.30;34.10;;;;;;6283750;28;20060;-70
2022/03/27 01:15:53;;;;;;;9.02;4.13;;;16.30;34.10;;;;;;6293854;28;20025;-70
2022/03/27 01:18:53;;;;;;;9.90;4.20;;;16.20;34.10;;;;;;6292910;28;20474;-69
2022/03/27 01:21:55;;;;;;;8.23;3.78;;;16.20;34.20;;;;;;6289792;28;20054;-69
2022/03/27 01:24:56;;;;;;;9.60;4.28;;;16.20;34.50;;;;;;6310494;28;20036;-69
2022/03/27 01:27:56;;;;;;;6.40;3.55;;;16.20;34.80;;;;;;6294403;28;20036;-69
2022/03/27 01:30:58;;;;;;;7.60;4.30;;;16.20;34.70;;;;;;6293060;28;20040;-69
2022/03/27 01:33:59;;;;;;;9.73;4.22;;;16.20;34.50;;;;;;6294564;28;20040;-69
2022/03/27 01:37:08;;;;;;;5.63;3.63;;;16.10;34.50;;;;;;6294333;28;20090;-69
2022/03/27 01:40:09;;;;;;;9.75;4.13;;;16.10;34.40;;;;;;6293756;28;20032;-71
2022/03/27 01:43:10;;;;;;;5.50;3.45;;;16.10;34.40;;;;;;6293766;28;20476;-70
2022/03/27 01:46:11;;;;;;;7.63;3.63;;;16.10;34.40;;;;;;6309230;28;20037;-69
2022/03/27 01:49:15;;;;;;;9.75;4.13;;;16.10;34.40;;;;;;6294346;28;20422;-69
2022/03/27 01:52:16;;;;;;;9.13;4.50;;;16.10;34.50;;;;;;6290974;28;20072;-69
2022/03/27 01:55:16;;;;;;;7.93;4.22;;;16.00;34.50;;;;;;6292472;28;20047;-69
2022/03/27 01:58:17;;;;;;;7.03;3.47;;;16.00;34.70;;;;;;6291830;28;20350;-70
2022/03/27 02:01:19;;;;;;;7.55;3.58;;;16.00;34.80;;;;;;6294182;28;20089;-69
2022/03/27 02:04:21;;;;;;;8.98;3.75;;;15.90;34.80;;;;;;6291412;28;20036;-69
2022/03/27 02:07:22;;;;;;;7.50;3.80;;;15.90;34.80;;;;;;6293274;28;20076;-70
2022/03/27 02:10:23;;;;;;;13.30;4.28;;;15.80;34.70;;;;;;6293437;28;20040;-70
2022/03/27 02:13:24;;;;;;;13.00;3.97;;;15.80;34.80;;;;;;6294213;28;20043;-71
2022/03/27 02:16:25;;;;;;;7.28;4.20;;;15.70;34.90;;;;;;6293616;28;20036;-70
2022/03/27 02:19:25;;;;;;;7.03;3.92;;;15.70;35.00;;;;;;6309153;28;20145;-70
2022/03/27 02:22:26;;;;;;;10.55;4.10;;;15.60;35.10;;;;;;6293862;28;20032;-69
2022/03/27 02:25:27;;;;;;;8.57;4.07;;;15.60;35.10;;;;;;6292086;28;20037;-70
2022/03/27 02:28:28;;;;;;;8.65;4.03;;;15.60;35.80;;;;;;6295621;28;20094;-70
2022/03/27 02:31:29;;;;;;;10.80;4.50;;;15.50;35.20;;;;;;6298425;28;20450;-70
2022/03/27 02:34:30;;;;;;;11.05;4.00;;;15.40;35.10;;;;;;6283635;28;20036;-70
2022/03/27 02:37:30;;;;;;;8.02;4.05;;;15.30;35.10;;;;;;6297142;28;20123;-70
2022/03/27 02:40:33;;;;;;;8.02;3.88;;;15.30;35.10;;;;;;6296683;28;20350;-70
2022/03/27 02:43:34;;;;;;;9.88;3.90;;;15.30;35.10;;;;;;6298154;28;20043;-69
2022/03/27 02:46:35;;;;;;;7.68;4.15;;;15.30;35.20;;;;;;6294505;28;20457;-69
2022/03/27 02:49:36;;;;;;;13.68;5.30;;;15.30;35.30;;;;;;6297687;28;20028;-69
2022/03/27 02:52:36;;;;;;;9.93;3.70;;;15.20;35.50;;;;;;6295782;28;20037;-69
2022/03/27 02:55:37;;;;;;;10.38;5.18;;;15.20;36.00;;;;;;6284219;28;20537;-69
2022/03/27 02:58:38;;;;;;;9.98;5.18;;;15.20;36.30;;;;;;6297202;28;20028;-70
2022/03/27 03:01:39;;;;;;;10.52;5.03;;;15.20;37.10;;;;;;6313928;28;20114;-70
2022/03/27 03:04:40;;;;;;;10.07;5.13;;;15.10;37.70;;;;;;6298105;28;20369;-70
2022/03/27 03:07:42;;;;;;;10.35;5.00;;;15.10;38.10;;;;;;6293722;28;20048;-70
2022/03/27 03:10:44;;;;;;;12.70;5.63;;;15.00;38.60;;;;;;6293981;28;20090;-70
2022/03/27 03:13:46;;;;;;;23.35;6.18;;;14.90;38.80;;;;;;6294945;28;20173;-70
2022/03/27 03:16:47;;;;;;;15.93;5.40;;;14.90;39.00;;;;;;6294673;28;20032;-70
2022/03/27 03:19:48;;;;;;;13.18;6.30;;;14.90;39.40;;;;;;6267451;28;20119;-70
2022/03/27 03:22:49;;;;;;;11.85;5.88;;;14.80;39.70;;;;;;6296832;28;20400;-70
2022/03/27 03:25:51;;;;;;;14.73;6.13;;;14.70;39.80;;;;;;6296031;28;20033;-69
2022/03/27 03:28:52;;;;;;;13.32;6.13;;;14.70;40.20;;;;;;6296705;28;20055;-68
2022/03/27 03:31:53;;;;;;;14.85;5.82;;;14.60;40.30;;;;;;6297128;28;20041;-69
2022/03/27 03:34:54;;;;;;;12.70;6.53;;;14.60;40.20;;;;;;6295867;28;20548;-70
2022/03/27 03:37:55;;;;;;;12.98;6.50;;;14.60;40.00;;;;;;6298822;28;20151;-69
2022/03/27 03:40:56;;;;;;;14.15;6.35;;;14.60;39.90;;;;;;6296936;28;20035;-69
2022/03/27 03:43:57;;;;;;;16.08;6.13;;;14.60;39.90;;;;;;6296132;28;20031;-69
2022/03/27 03:46:58;;;;;;;12.13;6.32;;;14.60;40.60;;;;;;6293959;28;20044;-70
2022/03/27 03:49:58;;;;;;;14.48;6.28;;;14.60;40.10;;;;;;6297306;28;20032;-69
2022/03/27 03:52:59;;;;;;;18.13;6.22;;;14.60;40.30;;;;;;6297151;28;20400;-69
2022/03/27 03:56:00;;;;;;;13.50;4.93;;;14.60;40.20;;;;;;6296355;28;20481;-69
2022/03/27 03:59:01;;;;;;;8.90;4.72;;;14.60;39.90;;;;;;6296034;28;20052;-70
2022/03/27 04:02:07;;;;;;;9.02;4.30;;;14.60;39.40;;;;;;6297316;28;20055;-69
2022/03/27 04:05:08;;;;;;;7.25;4.45;;;14.50;39.10;;;;;;6280182;28;20420;-69
2022/03/27 04:08:09;;;;;;;9.77;4.25;;;14.50;39.20;;;;;;6278231;28;20055;-69
2022/03/27 04:11:16;;;;;;;12.73;5.03;;;14.40;39.20;;;;;;6295211;28;20040;-69
2022/03/27 04:14:17;;;;;;;12.25;4.40;;;14.40;39.30;;;;;;6295934;28;20174;-69
2022/03/27 04:17:17;;;;;;;9.90;4.38;;;14.30;39.10;;;;;;6296565;28;20040;-70
2022/03/27 04:20:20;;;;;;;12.02;5.18;;;14.30;39.00;;;;;;6296264;28;20028;-69
2022/03/27 04:23:21;;;;;;;6.90;3.85;;;14.30;38.70;;;;;;6296099;28;20373;-69
2022/03/27 04:26:21;;;;;;;8.82;4.38;;;14.30;38.40;;;;;;6294890;28;20033;-70
2022/03/27 04:29:22;;;;;;;7.75;3.78;;;14.20;37.90;;;;;;6297391;28;20032;-70
2022/03/27 04:32:23;;;;;;;10.60;4.15;;;14.20;37.80;;;;;;6296243;28;20046;-70
2022/03/27 04:35:24;;;;;;;13.05;4.32;;;14.10;37.80;;;;;;6297362;28;20369;-69
2022/03/27 04:38:26;;;;;;;13.57;4.60;;;14.10;38.00;;;;;;6296339;28;20028;-70
2022/03/27 04:41:27;;;;;;;16.98;5.07;;;14.10;38.20;;;;;;6296250;28;20024;-69
2022/03/27 04:44:28;;;;;;;7.07;3.45;;;14.10;37.50;;;;;;6296389;28;20396;-69
2022/03/27 04:47:28;;;;;;;10.60;3.70;;;14.10;36.90;;;;;;6311370;28;20129;-69
2022/03/27 04:50:29;;;;;;;11.73;4.63;;;14.00;36.70;;;;;;6279283;28;20453;-71
2022/03/27 04:53:30;;;;;;;7.82;4.03;;;14.00;36.70;;;;;;6294381;28;20430;-69
2022/03/27 04:56:31;;;;;;;12.63;4.20;;;14.00;37.00;;;;;;6296827;28;20040;-69
2022/03/27 04:59:33;;;;;;;17.38;5.32;;;14.00;37.00;;;;;;6295608;28;20536;-69
2022/03/27 05:02:33;;;;;;;15.10;6.03;;;14.00;37.20;;;;;;6294869;28;20040;-69
2022/03/27 05:05:34;;;;;;;13.20;5.70;;;14.00;38.40;;;;;;6296891;28;20471;-70
2022/03/27 05:08:36;;;;;;;16.15;5.55;;;14.00;39.10;;;;;;6292498;28;20396;-69
2022/03/27 05:11:38;;;;;;;11.85;6.15;;;14.00;39.50;;;;;;6293749;28;20043;-69
2022/03/27 05:14:39;;;;;;;16.73;6.25;;;13.90;39.80;;;;;;6296633;28;20124;-69
2022/03/27 05:17:56;;;;;;;15.68;6.07;;;13.90;40.30;;;;;;6295186;28;20032;-69
2022/03/27 05:20:56;;;;;;;15.38;6.88;;;13.90;40.60;;;;;;6285408;28;20067;-69
2022/03/27 05:23:58;;;;;;;16.88;6.57;;;13.90;41.20;;;;;;6293994;28;20115;-70
2022/03/27 05:26:59;;;;;;;18.35;6.70;;;13.80;41.70;;;;;;6295772;28;20073;-69
2022/03/27 05:30:00;;;;;;;13.05;6.03;;;13.80;41.80;;;;;;6294230;28;20032;-69
2022/03/27 05:33:03;;;;;;;14.00;6.45;;;13.80;42.20;;;;;;6295393;28;20032;-69
2022/03/27 05:36:07;;;;;;;13.45;5.93;;;13.80;42.40;;;;;;6296289;28;20025;-69
2022/03/27 05:39:08;;;;;;;24.20;6.50;;;13.70;42.60;;;;;;6295545;28;20052;-69
2022/03/27 05:42:09;;;;;;;12.13;6.15;;;13.60;42.50;;;;;;6267994;28;20033;-69
2022/03/27 05:45:10;;;;;;;14.30;5.93;;;13.60;42.60;;;;;;6278118;28;20060;-69
2022/03/27 05:48:12;;;;;;;12.65;6.13;;;13.50;42.90;;;;;;6295061;28;20385;-69
2022/03/27 05:51:13;;;;;;;10.95;5.20;;;13.50;42.90;;;;;;6294950;28;20064;-70
2022/03/27 05:54:14;;;;;;;13.77;6.15;;;13.40;43.10;;;;;;6295180;28;20505;-69
2022/03/27 05:57:16;;;;;;;15.57;5.80;;;13.40;43.30;;;;;;6310908;28;20094;-70
2022/03/27 06:00:21;;;;;;;13.82;5.43;;;13.30;43.30;;;;;;6293569;28;20473;-69
2022/03/27 06:03:22;;;;;;;13.38;4.55;;;13.30;43.40;;;;;;6293009;28;20446;-70
2022/03/27 06:06:23;;;;;;;11.27;5.32;;;13.20;43.30;;;;;;6292281;28;20165;-69
2022/03/27 06:09:24;;;;;;;17.80;5.18;;;13.20;43.00;;;;;;6292793;28;20032;-71
2022/03/27 06:12:25;;;;;;;14.52;5.28;;;13.20;42.50;;;;;;6293207;28;20373;-69
2022/03/27 06:15:27;;;;;;;9.88;4.70;;;13.20;42.10;;;;;;6293210;28;20453;-69
2022/03/27 06:18:28;;;;;;;8.38;4.45;;;13.30;41.90;;;;;;6294136;28;20033;-70
2022/03/27 06:21:29;;;;;;;12.45;4.75;;;13.30;41.50;;;;;;6294710;28;20760;-70
2022/03/27 06:24:30;;;;;;;10.70;4.70;;;13.40;41.40;;;;;;6294212;28;20033;-70
2022/03/27 06:27:31;;;;;;;9.20;5.20;;;13.40;41.30;;;;;;6289835;28;20044;-70
2022/03/27 06:30:32;;;;;;;10.90;4.65;;;13.50;40.70;;;;;;6308343;28;20123;-70
2022/03/27 06:33:33;;;;;;;18.92;4.90;;;13.50;40.20;;;;;;6293806;28;20047;-70
2022/03/27 06:36:35;;;;;;;16.25;5.40;;;13.50;39.80;;;;;;6292840;28;20466;-69
2022/03/27 06:39:36;;;;;;;10.98;4.40;;;13.60;39.70;;;;;;6293534;28;20106;-73
2022/03/27 06:42:37;;;;;;;12.18;5.50;;;13.60;39.90;;;;;;6291801;28;20036;-70
2022/03/27 06:45:38;;;;;;;11.45;5.30;;;13.70;39.50;;;;;;6291415;28;20120;-70
2022/03/27 06:48:40;;;;;;;10.20;5.10;;;13.70;39.40;;;;;;6292265;28;20036;-70
2022/03/27 06:51:41;;;;;;;14.40;6.03;;;13.80;39.50;;;;;;6294379;28;20373;-69
2022/03/27 06:54:43;;;;;;;13.20;5.88;;;13.80;39.90;;;;;;6295168;28;20037;-69
2022/03/27 06:57:45;;;;;;;13.40;5.75;;;13.80;40.10;;;;;;6294893;28;20330;-69
2022/03/27 07:04:05;;;;;;;18.17;5.40;;;14.10;40.00;;;;;;6291759;28;20105;-70
2022/03/27 07:07:06;;;;;;;14.63;5.75;;;14.00;40.60;;;;;;6287731;28;20052;-70
2022/03/27 07:10:07;;;;;;;11.85;5.82;;;14.00;40.10;;;;;;6288746;28;20040;-71
2022/03/27 07:13:10;;;;;;;13.07;6.13;;;14.00;40.10;;;;;;6305326;28;20351;-71
2022/03/27 07:16:11;;;;;;;14.55;6.18;;;14.10;40.20;;;;;;6294822;28;20453;-70
2022/03/27 07:19:14;;;;;;;11.18;5.85;;;14.10;40.10;;;;;;6299558;28;20153;-69
2022/03/27 07:22:15;;;;;;;11.70;5.30;;;14.10;40.00;;;;;;6292879;28;20036;-71
2022/03/27 07:25:16;;;;;;;13.88;5.10;;;14.10;39.80;;;;;;6295052;28;20033;-70
2022/03/27 07:28:21;;;;;;;10.27;5.55;;;14.20;39.80;;;;;;6294342;28;20039;-71
2022/03/27 07:31:22;;;;;;;17.05;5.97;;;14.30;39.70;;;;;;6295791;28;20040;-72
2022/03/27 07:34:23;;;;;;;35.92;7.90;;;14.50;39.50;;;;;;6297814;28;20028;-72
2022/03/27 07:37:25;;;;;;;11.95;5.88;;;14.60;39.40;;;;;;6293509;28;20365;-72
2022/03/27 07:40:30;;;;;;;11.75;5.72;;;14.70;39.10;;;;;;6295451;28;20040;-72
2022/03/27 07:43:32;;;;;;;16.88;6.40;;;14.90;38.80;;;;;;6294430;28;20087;-71
2022/03/27 07:46:33;;;;;;;13.75;6.15;;;14.90;38.50;;;;;;6279173;28;20040;-72
2022/03/27 07:49:34;;;;;;;19.42;6.75;;;15.00;38.40;;;;;;6276788;28;20086;-71
2022/03/27 07:52:35;;;;;;;10.75;5.45;;;15.00;38.10;;;;;;6296113;28;20377;-71
2022/03/27 07:55:37;;;;;;;15.55;6.45;;;15.10;37.70;;;;;;6294323;28;20040;-70
2022/03/27 07:58:39;;;;;;;14.57;5.93;;;15.10;37.60;;;;;;6294695;28;20478;-70
2022/03/27 08:01:40;;;;;;;12.65;5.95;;;15.30;37.60;;;;;;6295293;28;20041;-71
2022/03/27 08:04:41;;;;;;;14.82;6.60;;;15.40;37.50;;;;;;6296401;28;20039;-70
2022/03/27 08:07:42;;;;;;;16.15;6.07;;;15.60;37.40;;;;;;6291725;28;20040;-71
2022/03/27 08:10:43;;;;;;;12.77;6.40;;;15.80;37.20;;;;;;6294355;28;20033;-69
2022/03/27 08:13:44;;;;;;;13.05;6.28;;;15.90;37.00;;;;;;6294980;28;20059;-71
2022/03/27 08:16:45;;;;;;;16.00;6.00;;;16.00;36.90;;;;;;6293229;28;20044;-70
2022/03/27 08:19:47;;;;;;;15.55;6.55;;;16.10;36.70;;;;;;6310621;28;20032;-70
2022/03/27 08:22:48;;;;;;;23.83;7.65;;;16.10;37.30;;;;;;6295080;28;20036;-70
2022/03/27 08:29:09;;;;;;;15.57;6.07;;;16.30;36.40;;;;;;6283644;28;20037;-71
2022/03/27 08:32:28;;;;;;;16.75;5.88;;;16.40;36.10;;;;;;6302517;28;20115;-70
2022/03/27 08:35:29;;;;;;;12.20;6.15;;;16.50;35.90;;;;;;6294561;28;20032;-71
2022/03/27 08:38:31;;;;;;;16.95;6.78;;;16.70;35.70;;;;;;6295298;28;20071;-70
2022/03/27 08:41:34;;;;;;;13.25;6.15;;;16.80;35.40;;;;;;6294996;28;20070;-70
2022/03/27 08:44:37;;;;;;;15.70;6.93;;;17.10;35.20;;;;;;6293682;28;20458;-70
2022/03/27 08:47:39;;;;;;;11.45;6.05;;;17.20;34.90;;;;;;6283552;28;20032;-70
2022/03/27 08:50:49;;;;;;;14.25;6.53;;;17.40;34.80;;;;;;6290943;28;20035;-70
2022/03/27 08:54:11;;;;;;;17.17;7.68;;;17.60;34.20;;;;;;6292431;28;20441;-70
2022/03/27 08:57:41;;;;;;;18.13;9.00;;;17.70;33.70;;;;;;6291911;28;20044;-70
2022/03/27 09:00:44;;;;;;;32.72;14.93;;;17.70;33.70;;;;;;6301345;28;20025;-70
2022/03/27 09:03:45;;;;;;;20.83;8.68;;;17.90;33.60;;;;;;6274029;28;20492;-70
2022/03/27 09:06:46;;;;;;;19.25;7.03;;;18.00;33.40;;;;;;6271007;28;20720;-70
2022/03/27 09:09:47;;;;;;;19.52;8.63;;;18.20;33.20;;;;;;6260005;28;20076;-71
2022/03/27 09:12:51;;;;;;;15.88;7.78;;;18.30;32.70;;;;;;6256169;28;20127;-70
2022/03/27 09:16:07;;;;;;;16.80;7.25;;;18.40;32.40;;;;;;6249147;28;20037;-72
2022/03/27 09:19:11;;;;;;;13.43;6.00;;;18.60;32.20;;;;;;6245521;28;21278;-70
2022/03/27 09:22:19;;;;;;;23.65;8.43;;;18.80;31.60;;;;;;6270343;28;20111;-70
2022/03/27 09:25:20;;;;;;;26.50;10.13;;;18.90;30.70;;;;;;6290658;28;20041;-70
2022/03/27 09:28:26;;;;;;;17.45;5.85;;;19.00;30.40;;;;;;6293495;28;20286;-70
2022/03/27 09:31:28;;;;;;;10.50;5.38;;;19.00;30.00;;;;;;6308902;28;20037;-71
2022/03/27 09:34:29;;;;;;;11.80;5.72;;;19.10;29.60;;;;;;6294848;28;20032;-70
2022/03/27 09:37:30;;;;;;;9.80;4.88;;;19.20;29.50;;;;;;6300474;28;20048;-70
2022/03/27 09:40:36;;;;;;;16.63;6.82;;;19.30;29.30;;;;;;6293052;28;20503;-70
2022/03/27 09:43:37;;;;;;;19.85;6.13;;;19.50;29.10;;;;;;6293636;28;20036;-70
2022/03/27 09:46:50;;;;;;;10.32;5.07;;;19.60;28.50;;;;;;6310003;28;20036;-70
2022/03/27 09:49:51;;;;;;;19.23;8.07;;;19.70;28.00;;;;;;6291302;28;20075;-71
2022/03/27 09:52:52;;;;;;;15.35;6.53;;;19.80;27.60;;;;;;6295026;28;20036;-70
2022/03/27 09:55:56;;;;;;;11.73;6.20;;;19.90;27.80;;;;;;6294622;28;20052;-69
2022/03/27 09:58:57;;;;;;;20.17;11.68;;;19.90;27.70;;;;;;6291559;28;20062;-71
2022/03/27 10:02:27;;;;;;;14.57;7.47;;;20.00;27.20;;;;;;6295094;28;20031;-72
2022/03/27 10:05:31;;;;;;;10.05;5.72;;;20.10;26.80;;;;;;6287064;28;20454;-72
2022/03/27 10:08:32;;;;;;;8.45;4.47;;;20.10;26.10;;;;;;6322745;28;20055;-68
2022/03/27 10:11:34;;;;;;;9.63;4.18;;;20.20;25.60;;;;;;6292366;28;20040;-69
2022/03/27 10:14:36;;;;;;;7.43;4.28;;;20.20;24.70;;;;;;6271888;28;20040;-70
2022/03/27 10:17:56;;;;;;;7.88;4.10;;;20.20;24.30;;;;;;6287865;28;20032;-69
2022/03/27 10:20:58;;;;;;;10.43;4.30;;;20.20;23.90;;;;;;6290714;28;20068;-68
2022/03/27 10:24:13;;;;;;;10.38;3.78;;;20.30;23.40;;;;;;6290928;28;20043;-68
2022/03/27 10:27:17;;;;;;;11.98;4.43;;;20.50;23.30;;;;;;6289268;28;20033;-69
2022/03/27 10:30:18;;;;;;;7.07;3.95;;;20.60;23.00;;;;;;6291660;28;20036;-70
2022/03/27 10:33:24;;;;;;;6.00;4.05;;;20.70;22.70;;;;;;6294275;28;20024;-69
2022/03/27 10:36:53;;;;;;;11.25;5.43;;;20.80;22.70;;;;;;6292255;28;20365;-69
2022/03/27 10:40:09;;;;;;;11.82;5.57;;;20.90;22.70;;;;;;6289265;28;20032;-70
2022/03/27 10:43:35;;;;;;;11.77;4.50;;;21.10;22.70;;;;;;6320715;28;20155;-70
2022/03/27 10:46:37;;;;;;;14.05;5.78;;;21.30;22.80;;;;;;6285432;28;20101;-70
2022/03/27 10:50:05;;;;;;;10.60;4.80;;;21.60;22.20;;;;;;6293981;28;20042;-70
2022/03/27 10:53:08;;;;;;;9.88;5.53;;;21.80;22.10;;;;;;6297205;28;20024;-69
2022/03/27 10:56:38;;;;;;;17.25;6.15;;;22.10;21.90;;;;;;6295497;28;20062;-70
2022/03/27 10:59:43;;;;;;;10.60;4.55;;;22.40;21.60;;;;;;6295023;28;20040;-71
2022/03/27 11:02:50;;;;;;;21.00;9.18;;;22.70;21.40;;;;;;6296507;28;20037;-70
2022/03/27 11:05:57;;;;;;;17.10;7.97;;;23.00;20.90;;;;;;6296576;28;20102;-70
2022/03/27 11:09:02;;;;;;;8.80;5.18;;;23.30;20.30;;;;;;6279444;28;20124;-71
2022/03/27 11:12:07;;;;;;;14.57;6.75;;;23.60;19.80;;;;;;6296626;28;20025;-71
2022/03/27 11:15:08;;;;;;;8.35;4.80;;;23.90;19.80;;;;;;6293263;28;20038;-71
2022/03/27 11:18:11;;;;;;;8.80;4.47;;;24.30;19.60;;;;;;6294847;28;20021;-71
2022/03/27 11:21:13;;;;;;;21.92;8.48;;;24.40;18.60;;;;;;6295302;28;20024;-71
2022/03/27 11:24:17;;;;;;;8.73;5.00;;;24.60;18.60;;;;;;6292568;28;20037;-72
2022/03/27 11:28:03;;;;;;;6.68;3.95;;;24.80;18.40;;;;;;6294571;28;20497;-72
2022/03/27 11:31:04;;;;;;;7.72;4.45;;;25.00;18.20;;;;;;6291555;28;20111;-70
2022/03/27 11:34:14;;;;;;;8.13;4.15;;;25.20;18.30;;;;;;6276815;28;20037;-71
2022/03/27 11:37:25;;;;;;;19.85;5.53;;;25.50;18.30;;;;;;6293068;28;20143;-71
2022/03/27 11:40:52;;;;;;;9.60;4.55;;;25.70;18.10;;;;;;6293315;28;20043;-71
2022/03/27 11:47:52;;;;;;;7.43;3.70;;;25.90;17.50;;;;;;6290978;28;20106;-71
2022/03/27 11:50:56;;;;;;;7.93;3.97;;;25.90;17.10;;;;;;6293891;28;20043;-70
2022/03/27 11:54:01;;;;;;;8.52;4.30;;;25.80;17.50;;;;;;6293979;28;20032;-72
2022/03/27 11:57:03;;;;;;;8.35;4.55;;;25.80;16.90;;;;;;6292333;28;20032;-70
2022/03/27 12:00:05;;;;;;;10.15;5.15;;;26.00;16.70;;;;;;6271090;28;20109;-71
2022/03/27 12:03:19;;;;;;;6.82;3.80;;;26.20;16.70;;;;;;6292452;28;20043;-71
2022/03/27 12:06:27;;;;;;;5.95;3.75;;;26.50;16.70;;;;;;6291667;28;20094;-71
2022/03/27 12:09:33;;;;;;;8.98;4.13;;;26.90;16.60;;;;;;6275120;28;20050;-73
2022/03/27 12:12:34;;;;;;;10.43;4.75;;;27.20;16.40;;;;;;6290695;28;20032;-74
2022/03/27 12:15:49;;;;;;;11.80;4.93;;;27.60;16.20;;;;;;6292658;28;20154;-72
2022/03/27 12:18:51;;;;;;;5.13;3.45;;;28.00;15.90;;;;;;6294903;28;20037;-73
2022/03/27 12:21:51;;;;;;;14.60;6.90;;;28.30;15.60;;;;;;6272879;28;20100;-71
2022/03/27 12:24:52;;;;;;;10.70;5.85;;;28.60;15.40;;;;;;6291019;28;20031;-73
2022/03/27 12:31:27;;;;;;;13.55;5.93;;;29.00;14.70;;;;;;6288283;28;20108;-72
2022/03/27 12:34:28;;;;;;;9.60;5.45;;;29.10;14.90;;;;;;6290766;28;20053;-72
2022/03/27 12:37:31;;;;;;;7.50;4.30;;;29.20;14.90;;;;;;6326451;28;20126;-73
2022/03/27 12:40:46;;;;;;;10.52;5.18;;;29.40;14.80;;;;;;6290623;28;20090;-73
2022/03/27 12:44:00;;;;;;;9.25;4.10;;;29.90;14.40;;;;;;6286793;28;20660;-72
2022/03/27 12:47:00;;;;;;;12.48;4.40;;;30.50;14.30;;;;;;6296269;28;20354;-71
2022/03/27 12:50:02;;;;;;;8.02;4.45;;;31.00;14.00;;;;;;6268453;28;20052;-71
2022/03/27 12:53:22;;;;;;;12.55;3.90;;;31.10;13.50;;;;;;6271173;28;20032;-71
2022/03/27 12:56:23;;;;;;;8.90;3.95;;;30.80;13.30;;;;;;6271750;28;20354;-71
2022/03/27 12:59:24;;;;;;;5.95;4.00;;;30.40;13.40;;;;;;6249815;28;20048;-71
2022/03/27 13:02:27;;;;;;;7.25;4.25;;;30.00;13.70;;;;;;6266612;28;20036;-72
2022/03/27 13:05:28;;;;;;;6.72;3.83;;;29.80;14.00;;;;;;6259359;28;20045;-71
2022/03/27 13:08:34;;;;;;;12.55;5.18;;;29.60;14.00;;;;;;6267173;28;20037;-73
2022/03/27 13:11:40;;;;;;;8.98;4.20;;;29.50;13.60;;;;;;6264856;28;20131;-71
2022/03/27 13:14:45;;;;;;;8.32;4.40;;;29.40;13.50;;;;;;6266329;28;20044;-71
2022/03/27 13:18:02;;;;;;;7.93;4.72;;;29.30;13.60;;;;;;6266496;28;20117;-72
2022/03/27 13:21:16;;;;;;;10.43;5.90;;;29.30;13.60;;;;;;6264273;28;20075;-71
2022/03/27 13:24:31;;;;;;;8.45;4.15;;;29.60;13.30;;;;;;6266067;28;20044;-71
2022/03/27 13:27:32;;;;;;;9.35;4.03;;;30.10;13.20;;;;;;6264621;28;20119;-70
2022/03/27 13:30:34;;;;;;;8.45;4.20;;;30.50;12.90;;;;;;6261421;28;20060;-70
2022/03/27 13:33:35;;;;;;;7.68;4.22;;;30.60;12.70;;;;;;6265951;28;20361;-71
2022/03/27 13:36:38;;;;;;;6.90;4.70;;;30.60;12.70;;;;;;6267089;28;20033;-70
2022/03/27 13:39:39;;;;;;;6.68;4.03;;;30.50;12.80;;;;;;6265688;28;20061;-71
2022/03/27 13:42:58;;;;;;;7.28;4.07;;;30.20;12.80;;;;;;6265915;28;20517;-71
2022/03/27 13:45:59;;;;;;;8.77;4.10;;;30.00;12.80;;;;;;6261266;28;20041;-71
2022/03/27 13:49:00;;;;;;;8.48;4.30;;;29.50;13.00;;;;;;6262942;28;20474;-73
2022/03/27 13:52:01;;;;;;;12.50;4.68;;;29.10;13.10;;;;;;6263882;28;20044;-72
2022/03/27 13:55:02;;;;;;;8.13;4.13;;;28.80;13.40;;;;;;6258968;28;20033;-71
2022/03/27 13:58:04;;;;;;;8.25;4.28;;;28.60;13.40;;;;;;6260548;28;20029;-71
2022/03/27 14:01:05;;;;;;;7.22;3.92;;;28.30;13.30;;;;;;6265101;28;20505;-71
2022/03/27 14:04:07;;;;;;;14.80;4.07;;;28.00;13.30;;;;;;6259340;28;20442;-70
2022/03/27 14:07:08;;;;;;;13.23;4.63;;;27.80;13.50;;;;;;6260935;28;20045;-70
2022/03/27 14:10:09;;;;;;;8.52;4.13;;;27.60;13.60;;;;;;6258507;28;20040;-71
2022/03/27 14:13:10;;;;;;;17.55;4.43;;;27.60;13.70;;;;;;6234890;28;20062;-70
2022/03/27 14:16:11;;;;;;;10.85;5.10;;;27.60;13.80;;;;;;6260824;28;20040;-72
2022/03/27 14:19:13;;;;;;;8.65;4.68;;;27.60;13.70;;;;;;6264828;28;20116;-72
2022/03/27 14:22:15;;;;;;;8.95;4.55;;;27.50;13.60;;;;;;6265741;28;20044;-72
2022/03/27 14:25:16;;;;;;;7.93;5.47;;;27.50;13.70;;;;;;6252867;28;20049;-70
2022/03/27 14:28:17;;;;;;;11.07;4.85;;;27.40;13.70;;;;;;6270434;28;20516;-70
2022/03/27 14:31:17;;;;;;;13.52;4.68;;;27.40;13.70;;;;;;6261554;28;20050;-71
2022/03/27 14:34:20;;;;;;;9.05;5.15;;;27.40;13.70;;;;;;6268664;28;20041;-70
2022/03/27 14:37:24;;;;;;;7.75;4.25;;;27.30;13.80;;;;;;6269267;28;20032;-71
2022/03/27 14:40:25;;;;;;;8.55;5.13;;;27.20;13.80;;;;;;6269939;28;20051;-71
2022/03/27 14:43:26;;;;;;;10.25;4.60;;;27.10;13.90;;;;;;6273202;28;20036;-71
2022/03/27 14:46:27;;;;;;;13.15;5.55;;;27.10;13.80;;;;;;6272166;28;20094;-72
2022/03/27 14:49:28;;;;;;;10.85;5.15;;;27.00;14.00;;;;;;6269531;28;20028;-71
2022/03/27 14:52:29;;;;;;;14.77;5.40;;;26.80;14.00;;;;;;6270596;28;20025;-71
2022/03/27 14:58:50;;;;;;;13.40;4.93;;;26.60;14.20;;;;;;6280247;28;20045;-70
2022/03/27 15:02:09;;;;;;;16.02;5.72;;;26.40;14.30;;;;;;6280329;28;20035;-70
2022/03/27 15:05:10;;;;;;;10.50;5.18;;;26.40;14.50;;;;;;6269806;28;20067;-72
2022/03/27 15:08:12;;;;;;;18.83;6.50;;;26.30;14.60;;;;;;6251774;28;20049;-72
2022/03/27 15:11:13;;;;;;;10.95;6.05;;;26.30;15.00;;;;;;6269384;28;20061;-71
2022/03/27 15:14:14;;;;;;;11.95;5.68;;;26.30;16.60;;;;;;6267924;28;20046;-73
2022/03/27 15:17:15;;;;;;;9.85;5.13;;;26.20;15.70;;;;;;6264532;28;20046;-72
2022/03/27 15:20:16;;;;;;;8.48;4.70;;;26.10;15.60;;;;;;6266583;28;20079;-71
2022/03/27 15:23:17;;;;;;;9.73;4.55;;;26.00;15.40;;;;;;6270537;28;20029;-71
2022/03/27 15:26:18;;;;;;;8.25;4.97;;;26.00;15.30;;;;;;6269681;28;20144;-72
2022/03/27 15:29:19;;;;;;;9.13;5.22;;;25.90;15.30;;;;;;6268482;28;20036;-71
2022/03/27 15:32:20;;;;;;;9.50;4.95;;;25.80;15.30;;;;;;6267776;28;20037;-72
2022/03/27 15:35:21;;;;;;;14.10;5.65;;;25.70;15.30;;;;;;6267190;28;20049;-71
2022/03/27 15:38:22;;;;;;;9.07;5.10;;;25.70;15.30;;;;;;6267661;28;20370;-74
2022/03/27 15:41:23;;;;;;;12.02;4.93;;;25.60;15.30;;;;;;6265773;28;20040;-71
2022/03/27 15:44:24;;;;;;;10.23;5.43;;;25.60;15.40;;;;;;6266276;28;20044;-73
2022/03/27 15:47:25;;;;;;;11.52;5.03;;;25.50;15.40;;;;;;6264174;28;20071;-73
2022/03/27 15:50:26;;;;;;;7.18;4.20;;;25.40;15.40;;;;;;6262977;28;20033;-72
2022/03/27 15:53:27;;;;;;;14.20;6.10;;;25.40;15.30;;;;;;6267715;28;20033;-71
2022/03/27 15:56:28;;;;;;;9.88;5.47;;;25.30;15.20;;;;;;6249665;28;20524;-71
2022/03/27 15:59:30;;;;;;;9.73;4.65;;;25.30;15.40;;;;;;6250280;28;20057;-72
2022/03/27 16:02:31;;;;;;;10.95;4.35;;;25.20;15.30;;;;;;6259432;28;20076;-70
2022/03/27 16:05:32;;;;;;;9.98;5.57;;;25.20;15.40;;;;;;6254858;28;20079;-72